sensor_id;sensor_type;location;lat;lon;timestamp;P1;durP1;ratioP1;P2;durP2;ratioP2
79139;SDS011;68546;59.142;37.948;2023-03-16T00:02:12;5.80;;;1.70;;
79139;SDS011;68546;59.142;37.948;2023-03-16T00:04:38;4.50;;;1.40;;
79139;SDS011;68546;59.142;37.948;2023-03-16T00:07:05;3.83;;;1.25;;
79139;SDS011;68546;59.142;37.948;2023-03-16T00:09:34;4.10;;;1.30;;
79139;SDS011;68546;59.142;37.948;2023-03-16T00:12:06;5.88;;;1.65;;
79139;SDS011;68546;59.142;37.948;2023-03-16T00:14:46;5.28;;;1.77;;
79139;SDS011;68546;59.142;37.948;2023-03-16T00:17:13;4.05;;;1.50;;
79139;SDS011;68546;59.142;37.948;2023-03-16T00:19:48;5.20;;;1.80;;
79139;SDS011;68546;59.142;37.948;2023-03-16T00:22:22;7.68;;;1.73;;
79139;SDS011;68546;59.142;37.948;2023-03-16T00:24:51;4.68;;;1.40;;
79139;SDS011;68546;59.142;37.948;2023-03-16T00:27:18;5.13;;;1.60;;
79139;SDS011;68546;59.142;37.948;2023-03-16T00:29:45;5.25;;;1.58;;
79139;SDS011;68546;59.142;37.948;2023-03-16T00:32:19;5.70;;;1.83;;
79139;SDS011;68546;59.142;37.948;2023-03-16T00:34:53;4.30;;;1.58;;
79139;SDS011;68546;59.142;37.948;2023-03-16T00:37:20;5.80;;;2.27;;
79139;SDS011;68546;59.142;37.948;2023-03-16T00:39:48;6.50;;;2.10;;
79139;SDS011;68546;59.142;37.948;2023-03-16T00:42:15;6.38;;;2.25;;
79139;SDS011;68546;59.142;37.948;2023-03-16T00:44:43;6.32;;;2.13;;
79139;SDS011;68546;59.142;37.948;2023-03-16T00:47:10;7.60;;;3.10;;
79139;SDS011;68546;59.142;37.948;2023-03-16T00:49:42;13.23;;;5.00;;
79139;SDS011;68546;59.142;37.948;2023-03-16T00:52:10;15.85;;;6.18;;
79139;SDS011;68546;59.142;37.948;2023-03-16T00:54:41;18.92;;;7.55;;
79139;SDS011;68546;59.142;37.948;2023-03-16T00:57:10;31.37;;;9.30;;
79139;SDS011;68546;59.142;37.948;2023-03-16T00:59:38;23.95;;;9.98;;
79139;SDS011;68546;59.142;37.948;2023-03-16T01:02:06;19.20;;;8.07;;
79139;SDS011;68546;59.142;37.948;2023-03-16T01:04:33;18.13;;;7.03;;
79139;SDS011;68546;59.142;37.948;2023-03-16T01:07:01;16.07;;;5.40;;
79139;SDS011;68546;59.142;37.948;2023-03-16T01:09:29;12.43;;;3.40;;
79139;SDS011;68546;59.142;37.948;2023-03-16T01:11:56;10.18;;;2.63;;
79139;SDS011;68546;59.142;37.948;2023-03-16T01:14:22;6.60;;;2.55;;
79139;SDS011;68546;59.142;37.948;2023-03-16T01:16:49;5.72;;;1.80;;
79139;SDS011;68546;59.142;37.948;2023-03-16T01:19:16;6.75;;;2.10;;
79139;SDS011;68546;59.142;37.948;2023-03-16T01:21:43;6.00;;;2.00;;
79139;SDS011;68546;59.142;37.948;2023-03-16T01:24:10;6.50;;;1.90;;
79139;SDS011;68546;59.142;37.948;2023-03-16T01:26:36;4.60;;;1.52;;
79139;SDS011;68546;59.142;37.948;2023-03-16T01:29:03;4.95;;;1.80;;
79139;SDS011;68546;59.142;37.948;2023-03-16T01:31:30;7.13;;;2.22;;
79139;SDS011;68546;59.142;37.948;2023-03-16T01:33:57;4.53;;;1.40;;
79139;SDS011;68546;59.142;37.948;2023-03-16T01:36:27;7.88;;;2.38;;
79139;SDS011;68546;59.142;37.948;2023-03-16T01:38:58;5.65;;;1.92;;
79139;SDS011;68546;59.142;37.948;2023-03-16T01:41:28;5.57;;;1.50;;
79139;SDS011;68546;59.142;37.948;2023-03-16T01:43:56;4.93;;;1.80;;
79139;SDS011;68546;59.142;37.948;2023-03-16T01:46:26;4.70;;;1.50;;
79139;SDS011;68546;59.142;37.948;2023-03-16T01:48:56;3.92;;;1.38;;
79139;SDS011;68546;59.142;37.948;2023-03-16T01:51:51;6.50;;;2.17;;
79139;SDS011;68546;59.142;37.948;2023-03-16T01:54:35;6.15;;;1.85;;
79139;SDS011;68546;59.142;37.948;2023-03-16T01:57:08;6.63;;;2.53;;
79139;SDS011;68546;59.142;37.948;2023-03-16T02:02:18;5.65;;;2.03;;
79139;SDS011;68546;59.142;37.948;2023-03-16T02:05:00;4.03;;;1.45;;
79139;SDS011;68546;59.142;37.948;2023-03-16T02:07:36;5.17;;;1.47;;
79139;SDS011;68546;59.142;37.948;2023-03-16T02:10:10;5.30;;;1.63;;
79139;SDS011;68546;59.142;37.948;2023-03-16T02:12:39;5.53;;;1.67;;
79139;SDS011;68546;59.142;37.948;2023-03-16T02:15:05;4.85;;;1.42;;
79139;SDS011;68546;59.142;37.948;2023-03-16T02:17:33;4.35;;;1.73;;
79139;SDS011;68546;59.142;37.948;2023-03-16T02:22:45;3.33;;;1.02;;
79139;SDS011;68546;59.142;37.948;2023-03-16T02:25:15;4.30;;;1.30;;
79139;SDS011;68546;59.142;37.948;2023-03-16T02:30:48;4.03;;;1.30;;
79139;SDS011;68546;59.142;37.948;2023-03-16T02:33:16;4.70;;;1.70;;
79139;SDS011;68546;59.142;37.948;2023-03-16T02:35:44;5.63;;;1.80;;
79139;SDS011;68546;59.142;37.948;2023-03-16T02:38:10;6.07;;;1.58;;
79139;SDS011;68546;59.142;37.948;2023-03-16T02:40:43;3.88;;;1.35;;
79139;SDS011;68546;59.142;37.948;2023-03-16T02:43:18;4.95;;;1.77;;
79139;SDS011;68546;59.142;37.948;2023-03-16T02:45:59;5.65;;;2.10;;
79139;SDS011;68546;59.142;37.948;2023-03-16T02:48:41;4.47;;;1.15;;
79139;SDS011;68546;59.142;37.948;2023-03-16T02:51:30;3.37;;;0.80;;
79139;SDS011;68546;59.142;37.948;2023-03-16T02:53:57;2.75;;;0.70;;
79139;SDS011;68546;59.142;37.948;2023-03-16T02:56:26;2.35;;;0.65;;
79139;SDS011;68546;59.142;37.948;2023-03-16T02:58:52;4.03;;;0.93;;
79139;SDS011;68546;59.142;37.948;2023-03-16T03:01:20;2.47;;;0.70;;
79139;SDS011;68546;59.142;37.948;2023-03-16T03:03:47;3.15;;;1.05;;
79139;SDS011;68546;59.142;37.948;2023-03-16T03:06:14;2.80;;;0.77;;
79139;SDS011;68546;59.142;37.948;2023-03-16T03:08:41;3.40;;;0.80;;
79139;SDS011;68546;59.142;37.948;2023-03-16T03:11:07;2.42;;;0.70;;
79139;SDS011;68546;59.142;37.948;2023-03-16T03:13:35;3.60;;;1.10;;
79139;SDS011;68546;59.142;37.948;2023-03-16T03:16:06;2.37;;;0.67;;
79139;SDS011;68546;59.142;37.948;2023-03-16T03:18:32;2.63;;;0.82;;
79139;SDS011;68546;59.142;37.948;2023-03-16T03:20:59;2.28;;;0.50;;
79139;SDS011;68546;59.142;37.948;2023-03-16T03:23:26;4.15;;;0.90;;
79139;SDS011;68546;59.142;37.948;2023-03-16T03:25:56;2.25;;;0.68;;
79139;SDS011;68546;59.142;37.948;2023-03-16T03:28:24;2.70;;;0.82;;
79139;SDS011;68546;59.142;37.948;2023-03-16T03:30:51;3.45;;;0.90;;
79139;SDS011;68546;59.142;37.948;2023-03-16T03:33:17;3.37;;;1.00;;
79139;SDS011;68546;59.142;37.948;2023-03-16T03:35:44;2.13;;;0.50;;
79139;SDS011;68546;59.142;37.948;2023-03-16T03:38:11;4.35;;;0.93;;
79139;SDS011;68546;59.142;37.948;2023-03-16T03:40:39;2.30;;;0.73;;
79139;SDS011;68546;59.142;37.948;2023-03-16T03:43:05;1.33;;;0.43;;
79139;SDS011;68546;59.142;37.948;2023-03-16T03:45:36;1.95;;;0.60;;
79139;SDS011;68546;59.142;37.948;2023-03-16T03:48:03;2.75;;;0.57;;
79139;SDS011;68546;59.142;37.948;2023-03-16T03:50:29;2.03;;;0.60;;
79139;SDS011;68546;59.142;37.948;2023-03-16T03:53:22;3.03;;;0.82;;
79139;SDS011;68546;59.142;37.948;2023-03-16T03:56:08;2.42;;;0.88;;
79139;SDS011;68546;59.142;37.948;2023-03-16T03:58:36;3.67;;;0.97;;
79139;SDS011;68546;59.142;37.948;2023-03-16T04:01:03;2.70;;;0.80;;
79139;SDS011;68546;59.142;37.948;2023-03-16T04:03:31;2.20;;;0.73;;
79139;SDS011;68546;59.142;37.948;2023-03-16T04:05:58;1.70;;;0.53;;
79139;SDS011;68546;59.142;37.948;2023-03-16T04:08:25;2.05;;;0.63;;
79139;SDS011;68546;59.142;37.948;2023-03-16T04:10:51;3.05;;;0.52;;
79139;SDS011;68546;59.142;37.948;2023-03-16T04:13:20;2.15;;;0.73;;
79139;SDS011;68546;59.142;37.948;2023-03-16T04:15:48;3.10;;;0.85;;
79139;SDS011;68546;59.142;37.948;2023-03-16T04:18:19;3.38;;;0.80;;
79139;SDS011;68546;59.142;37.948;2023-03-16T04:20:45;3.67;;;1.10;;
79139;SDS011;68546;59.142;37.948;2023-03-16T04:23:17;1.77;;;0.60;;
79139;SDS011;68546;59.142;37.948;2023-03-16T04:25:48;3.08;;;0.90;;
79139;SDS011;68546;59.142;37.948;2023-03-16T04:28:17;2.58;;;0.65;;
79139;SDS011;68546;59.142;37.948;2023-03-16T04:30:49;2.50;;;1.03;;
79139;SDS011;68546;59.142;37.948;2023-03-16T04:33:22;2.50;;;0.88;;
79139;SDS011;68546;59.142;37.948;2023-03-16T04:35:48;3.40;;;0.80;;
79139;SDS011;68546;59.142;37.948;2023-03-16T04:38:18;2.92;;;0.82;;
79139;SDS011;68546;59.142;37.948;2023-03-16T04:40:56;2.92;;;0.82;;
79139;SDS011;68546;59.142;37.948;2023-03-16T04:43:27;5.25;;;1.13;;
79139;SDS011;68546;59.142;37.948;2023-03-16T04:46:01;2.35;;;0.75;;
79139;SDS011;68546;59.142;37.948;2023-03-16T04:48:30;3.13;;;0.80;;
79139;SDS011;68546;59.142;37.948;2023-03-16T04:51:01;4.75;;;1.15;;
79139;SDS011;68546;59.142;37.948;2023-03-16T04:53:31;2.03;;;0.65;;
79139;SDS011;68546;59.142;37.948;2023-03-16T04:56:03;1.97;;;0.50;;
79139;SDS011;68546;59.142;37.948;2023-03-16T04:58:33;3.63;;;0.73;;
79139;SDS011;68546;59.142;37.948;2023-03-16T05:01:01;3.35;;;0.90;;
79139;SDS011;68546;59.142;37.948;2023-03-16T05:03:29;3.45;;;0.85;;
79139;SDS011;68546;59.142;37.948;2023-03-16T05:05:57;2.80;;;0.85;;
79139;SDS011;68546;59.142;37.948;2023-03-16T05:08:26;2.33;;;0.65;;
79139;SDS011;68546;59.142;37.948;2023-03-16T05:10:57;4.22;;;0.93;;
79139;SDS011;68546;59.142;37.948;2023-03-16T05:13:26;4.00;;;1.17;;
79139;SDS011;68546;59.142;37.948;2023-03-16T05:15:56;3.03;;;0.93;;
79139;SDS011;68546;59.142;37.948;2023-03-16T05:18:28;2.85;;;0.73;;
79139;SDS011;68546;59.142;37.948;2023-03-16T05:20:56;3.03;;;1.07;;
79139;SDS011;68546;59.142;37.948;2023-03-16T05:23:27;4.45;;;0.98;;
79139;SDS011;68546;59.142;37.948;2023-03-16T05:25:59;6.40;;;1.83;;
79139;SDS011;68546;59.142;37.948;2023-03-16T05:28:29;6.00;;;1.75;;
79139;SDS011;68546;59.142;37.948;2023-03-16T05:31:08;4.68;;;1.42;;
79139;SDS011;68546;59.142;37.948;2023-03-16T05:33:39;5.07;;;1.20;;
79139;SDS011;68546;59.142;37.948;2023-03-16T05:39:17;8.60;;;7.88;;
79139;SDS011;68546;59.142;37.948;2023-03-16T05:41:47;5.50;;;2.17;;
79139;SDS011;68546;59.142;37.948;2023-03-16T05:44:16;5.70;;;1.40;;
79139;SDS011;68546;59.142;37.948;2023-03-16T05:47:07;3.65;;;1.25;;
79139;SDS011;68546;59.142;37.948;2023-03-16T05:49:38;6.03;;;1.77;;
79139;SDS011;68546;59.142;37.948;2023-03-16T05:52:17;5.20;;;1.50;;
79139;SDS011;68546;59.142;37.948;2023-03-16T05:54:44;4.75;;;1.50;;
79139;SDS011;68546;59.142;37.948;2023-03-16T05:57:11;8.68;;;1.75;;
79139;SDS011;68546;59.142;37.948;2023-03-16T05:59:40;4.93;;;1.38;;
79139;SDS011;68546;59.142;37.948;2023-03-16T06:02:09;5.22;;;1.90;;
79139;SDS011;68546;59.142;37.948;2023-03-16T06:04:36;4.70;;;1.42;;
79139;SDS011;68546;59.142;37.948;2023-03-16T06:07:02;5.97;;;1.87;;
79139;SDS011;68546;59.142;37.948;2023-03-16T06:09:32;5.80;;;1.85;;
79139;SDS011;68546;59.142;37.948;2023-03-16T06:12:01;5.90;;;2.15;;
79139;SDS011;68546;59.142;37.948;2023-03-16T06:14:30;5.25;;;1.98;;
79139;SDS011;68546;59.142;37.948;2023-03-16T06:16:58;4.25;;;1.42;;
79139;SDS011;68546;59.142;37.948;2023-03-16T06:19:25;5.03;;;1.52;;
79139;SDS011;68546;59.142;37.948;2023-03-16T06:21:57;4.00;;;1.27;;
79139;SDS011;68546;59.142;37.948;2023-03-16T06:24:24;4.17;;;1.33;;
79139;SDS011;68546;59.142;37.948;2023-03-16T06:26:51;4.63;;;1.45;;
79139;SDS011;68546;59.142;37.948;2023-03-16T06:29:19;5.88;;;1.67;;
79139;SDS011;68546;59.142;37.948;2023-03-16T06:31:46;5.05;;;1.55;;
79139;SDS011;68546;59.142;37.948;2023-03-16T06:34:14;6.57;;;2.27;;
79139;SDS011;68546;59.142;37.948;2023-03-16T06:36:42;11.93;;;1.88;;
79139;SDS011;68546;59.142;37.948;2023-03-16T06:39:11;7.78;;;1.38;;
79139;SDS011;68546;59.142;37.948;2023-03-16T06:41:41;4.45;;;1.25;;
79139;SDS011;68546;59.142;37.948;2023-03-16T06:44:11;5.43;;;1.37;;
79139;SDS011;68546;59.142;37.948;2023-03-16T06:46:46;5.22;;;1.55;;
79139;SDS011;68546;59.142;37.948;2023-03-16T06:49:13;4.93;;;1.30;;
79139;SDS011;68546;59.142;37.948;2023-03-16T06:51:40;6.55;;;1.73;;
79139;SDS011;68546;59.142;37.948;2023-03-16T06:54:07;6.47;;;1.63;;
79139;SDS011;68546;59.142;37.948;2023-03-16T06:56:37;4.10;;;1.40;;
79139;SDS011;68546;59.142;37.948;2023-03-16T06:59:06;3.55;;;1.15;;
79139;SDS011;68546;59.142;37.948;2023-03-16T07:01:35;3.78;;;1.02;;
79139;SDS011;68546;59.142;37.948;2023-03-16T07:04:02;2.65;;;0.90;;
79139;SDS011;68546;59.142;37.948;2023-03-16T07:06:33;3.38;;;0.95;;
79139;SDS011;68546;59.142;37.948;2023-03-16T07:08:59;6.53;;;0.95;;
79139;SDS011;68546;59.142;37.948;2023-03-16T07:11:30;3.22;;;1.02;;
79139;SDS011;68546;59.142;37.948;2023-03-16T07:13:58;3.30;;;0.90;;
79139;SDS011;68546;59.142;37.948;2023-03-16T07:16:28;4.00;;;1.10;;
79139;SDS011;68546;59.142;37.948;2023-03-16T07:18:58;4.18;;;1.00;;
79139;SDS011;68546;59.142;37.948;2023-03-16T07:21:25;3.70;;;0.90;;
79139;SDS011;68546;59.142;37.948;2023-03-16T07:23:53;10.75;;;1.70;;
79139;SDS011;68546;59.142;37.948;2023-03-16T07:26:24;8.80;;;1.33;;
79139;SDS011;68546;59.142;37.948;2023-03-16T07:28:58;5.73;;;1.63;;
79139;SDS011;68546;59.142;37.948;2023-03-16T07:31:24;8.07;;;2.50;;
79139;SDS011;68546;59.142;37.948;2023-03-16T07:33:53;8.40;;;3.33;;
79139;SDS011;68546;59.142;37.948;2023-03-16T07:36:30;7.97;;;3.67;;
79139;SDS011;68546;59.142;37.948;2023-03-16T07:38:59;8.27;;;3.70;;
79139;SDS011;68546;59.142;37.948;2023-03-16T07:41:26;9.77;;;4.10;;
79139;SDS011;68546;59.142;37.948;2023-03-16T07:44:12;6.90;;;3.80;;
79139;SDS011;68546;59.142;37.948;2023-03-16T07:46:39;6.00;;;2.90;;
79139;SDS011;68546;59.142;37.948;2023-03-16T07:49:06;5.97;;;2.50;;
79139;SDS011;68546;59.142;37.948;2023-03-16T07:51:36;6.40;;;1.83;;
79139;SDS011;68546;59.142;37.948;2023-03-16T07:54:03;4.70;;;2.00;;
79139;SDS011;68546;59.142;37.948;2023-03-16T07:56:34;5.07;;;1.70;;
79139;SDS011;68546;59.142;37.948;2023-03-16T07:59:02;5.70;;;1.70;;
79139;SDS011;68546;59.142;37.948;2023-03-16T08:01:31;4.25;;;1.40;;
79139;SDS011;68546;59.142;37.948;2023-03-16T08:04:00;4.97;;;2.15;;
79139;SDS011;68546;59.142;37.948;2023-03-16T08:06:27;5.73;;;1.30;;
79139;SDS011;68546;59.142;37.948;2023-03-16T08:08:54;4.38;;;0.98;;
79139;SDS011;68546;59.142;37.948;2023-03-16T08:11:31;4.07;;;1.08;;
79139;SDS011;68546;59.142;37.948;2023-03-16T08:14:03;3.80;;;1.08;;
79139;SDS011;68546;59.142;37.948;2023-03-16T08:16:53;6.85;;;2.08;;
79139;SDS011;68546;59.142;37.948;2023-03-16T08:19:21;10.17;;;3.63;;
79139;SDS011;68546;59.142;37.948;2023-03-16T08:21:50;8.48;;;3.08;;
79139;SDS011;68546;59.142;37.948;2023-03-16T08:24:17;7.53;;;2.90;;
79139;SDS011;68546;59.142;37.948;2023-03-16T08:26:44;6.93;;;2.58;;
79139;SDS011;68546;59.142;37.948;2023-03-16T08:29:13;8.25;;;3.03;;
79139;SDS011;68546;59.142;37.948;2023-03-16T08:31:43;6.37;;;2.30;;
79139;SDS011;68546;59.142;37.948;2023-03-16T08:34:25;7.78;;;3.22;;
79139;SDS011;68546;59.142;37.948;2023-03-16T08:36:52;7.18;;;3.13;;
79139;SDS011;68546;59.142;37.948;2023-03-16T08:39:21;8.77;;;3.70;;
79139;SDS011;68546;59.142;37.948;2023-03-16T08:41:48;8.73;;;3.80;;
79139;SDS011;68546;59.142;37.948;2023-03-16T08:44:37;9.30;;;3.47;;
79139;SDS011;68546;59.142;37.948;2023-03-16T08:47:05;7.28;;;2.83;;
79139;SDS011;68546;59.142;37.948;2023-03-16T08:49:34;6.25;;;2.50;;
79139;SDS011;68546;59.142;37.948;2023-03-16T08:52:07;5.40;;;1.70;;
79139;SDS011;68546;59.142;37.948;2023-03-16T08:54:36;5.07;;;1.67;;
79139;SDS011;68546;59.142;37.948;2023-03-16T08:57:04;5.67;;;1.80;;
79139;SDS011;68546;59.142;37.948;2023-03-16T08:59:32;6.40;;;1.45;;
79139;SDS011;68546;59.142;37.948;2023-03-16T09:02:00;5.97;;;1.85;;
79139;SDS011;68546;59.142;37.948;2023-03-16T09:04:29;4.50;;;1.27;;
79139;SDS011;68546;59.142;37.948;2023-03-16T09:06:57;5.30;;;1.80;;
79139;SDS011;68546;59.142;37.948;2023-03-16T09:09:24;5.87;;;1.20;;
79139;SDS011;68546;59.142;37.948;2023-03-16T09:11:51;6.03;;;1.95;;
79139;SDS011;68546;59.142;37.948;2023-03-16T09:14:19;11.32;;;3.30;;
79139;SDS011;68546;59.142;37.948;2023-03-16T09:16:47;9.23;;;4.75;;
79139;SDS011;68546;59.142;37.948;2023-03-16T09:19:14;10.85;;;4.90;;
79139;SDS011;68546;59.142;37.948;2023-03-16T09:21:41;12.80;;;5.23;;
79139;SDS011;68546;59.142;37.948;2023-03-16T09:24:09;10.20;;;5.68;;
79139;SDS011;68546;59.142;37.948;2023-03-16T09:26:36;12.52;;;5.22;;
79139;SDS011;68546;59.142;37.948;2023-03-16T09:29:05;14.30;;;5.60;;
79139;SDS011;68546;59.142;37.948;2023-03-16T09:31:32;14.70;;;6.53;;
79139;SDS011;68546;59.142;37.948;2023-03-16T09:34:00;13.60;;;6.30;;
79139;SDS011;68546;59.142;37.948;2023-03-16T09:36:27;13.23;;;5.47;;
79139;SDS011;68546;59.142;37.948;2023-03-16T09:38:55;10.88;;;4.60;;
79139;SDS011;68546;59.142;37.948;2023-03-16T09:44:16;6.22;;;1.92;;
79139;SDS011;68546;59.142;37.948;2023-03-16T09:47:06;5.67;;;1.40;;
79139;SDS011;68546;59.142;37.948;2023-03-16T09:49:39;4.28;;;1.20;;
79139;SDS011;68546;59.142;37.948;2023-03-16T09:52:19;6.32;;;2.00;;
79139;SDS011;68546;59.142;37.948;2023-03-16T09:54:59;8.90;;;2.60;;
79139;SDS011;68546;59.142;37.948;2023-03-16T09:57:41;7.03;;;2.47;;
79139;SDS011;68546;59.142;37.948;2023-03-16T10:00:16;8.17;;;2.93;;
79139;SDS011;68546;59.142;37.948;2023-03-16T10:02:53;7.90;;;2.13;;
79139;SDS011;68546;59.142;37.948;2023-03-16T10:05:34;10.50;;;3.58;;
79139;SDS011;68546;59.142;37.948;2023-03-16T10:16:01;9.30;;;3.47;;
79139;SDS011;68546;59.142;37.948;2023-03-16T10:18:35;9.48;;;3.42;;
79139;SDS011;68546;59.142;37.948;2023-03-16T10:21:14;9.05;;;2.65;;
79139;SDS011;68546;59.142;37.948;2023-03-16T10:23:44;5.63;;;2.28;;
79139;SDS011;68546;59.142;37.948;2023-03-16T10:26:13;7.13;;;2.30;;
79139;SDS011;68546;59.142;37.948;2023-03-16T10:28:44;6.78;;;2.30;;
79139;SDS011;68546;59.142;37.948;2023-03-16T10:31:11;6.80;;;2.60;;
79139;SDS011;68546;59.142;37.948;2023-03-16T10:33:40;9.10;;;2.45;;
79139;SDS011;68546;59.142;37.948;2023-03-16T10:39:03;7.83;;;2.47;;
79139;SDS011;68546;59.142;37.948;2023-03-16T10:41:33;9.75;;;2.38;;
79139;SDS011;68546;59.142;37.948;2023-03-16T10:44:05;8.10;;;2.83;;
79139;SDS011;68546;59.142;37.948;2023-03-16T10:46:57;7.30;;;2.40;;
79139;SDS011;68546;59.142;37.948;2023-03-16T10:49:26;6.63;;;2.03;;
79139;SDS011;68546;59.142;37.948;2023-03-16T10:51:55;4.47;;;1.83;;
79139;SDS011;68546;59.142;37.948;2023-03-16T10:54:33;5.95;;;2.20;;
79139;SDS011;68546;59.142;37.948;2023-03-16T11:02:40;10.10;;;3.30;;
79139;SDS011;68546;59.142;37.948;2023-03-16T11:05:11;9.67;;;3.33;;
79139;SDS011;68546;59.142;37.948;2023-03-16T11:07:48;7.72;;;3.00;;
79139;SDS011;68546;59.142;37.948;2023-03-16T11:10:53;9.98;;;3.15;;
79139;SDS011;68546;59.142;37.948;2023-03-16T11:13:12;8.75;;;3.25;;
79139;SDS011;68546;59.142;37.948;2023-03-16T11:15:55;11.15;;;2.88;;
79139;SDS011;68546;59.142;37.948;2023-03-16T11:18:34;7.80;;;3.20;;
79139;SDS011;68546;59.142;37.948;2023-03-16T11:21:07;6.93;;;2.38;;
79139;SDS011;68546;59.142;37.948;2023-03-16T11:23:45;5.25;;;1.80;;
79139;SDS011;68546;59.142;37.948;2023-03-16T11:26:20;5.55;;;1.40;;
79139;SDS011;68546;59.142;37.948;2023-03-16T11:28:56;5.00;;;1.70;;
79139;SDS011;68546;59.142;37.948;2023-03-16T11:31:46;5.20;;;2.00;;
79139;SDS011;68546;59.142;37.948;2023-03-16T11:34:25;5.75;;;1.80;;
79139;SDS011;68546;59.142;37.948;2023-03-16T11:37:10;4.88;;;1.77;;
79139;SDS011;68546;59.142;37.948;2023-03-16T11:40:18;6.65;;;2.08;;
79139;SDS011;68546;59.142;37.948;2023-03-16T12:09:21;6.65;;;2.10;;
79139;SDS011;68546;59.142;37.948;2023-03-16T12:17:56;4.68;;;1.30;;
79139;SDS011;68546;59.142;37.948;2023-03-16T12:20:33;6.50;;;2.13;;
79139;SDS011;68546;59.142;37.948;2023-03-16T12:23:10;6.15;;;2.40;;
79139;SDS011;68546;59.142;37.948;2023-03-16T12:25:42;6.27;;;2.00;;
79139;SDS011;68546;59.142;37.948;2023-03-16T12:28:20;4.93;;;1.65;;
79139;SDS011;68546;59.142;37.948;2023-03-16T12:33:42;5.63;;;2.05;;
79139;SDS011;68546;59.142;37.948;2023-03-16T12:42:07;6.50;;;2.53;;
79139;SDS011;68546;59.142;37.948;2023-03-16T12:47:34;7.53;;;2.00;;
79139;SDS011;68546;59.142;37.948;2023-03-16T12:50:15;4.30;;;1.50;;
79139;SDS011;68546;59.142;37.948;2023-03-16T12:52:46;5.65;;;1.85;;
79139;SDS011;68546;59.142;37.948;2023-03-16T12:58:08;4.68;;;1.30;;
79139;SDS011;68546;59.142;37.948;2023-03-16T13:00:37;5.30;;;1.80;;
79139;SDS011;68546;59.142;37.948;2023-03-16T13:03:12;4.77;;;1.70;;
79139;SDS011;68546;59.142;37.948;2023-03-16T13:05:45;3.97;;;1.30;;
79139;SDS011;68546;59.142;37.948;2023-03-16T13:08:18;5.20;;;1.60;;
79139;SDS011;68546;59.142;37.948;2023-03-16T13:13:32;5.07;;;1.40;;
79139;SDS011;68546;59.142;37.948;2023-03-16T13:16:04;6.13;;;1.60;;
79139;SDS011;68546;59.142;37.948;2023-03-16T13:18:48;6.32;;;1.80;;
79139;SDS011;68546;59.142;37.948;2023-03-16T13:21:18;4.97;;;1.83;;
79139;SDS011;68546;59.142;37.948;2023-03-16T13:26:47;4.40;;;1.50;;
79139;SDS011;68546;59.142;37.948;2023-03-16T13:29:22;5.25;;;1.45;;
79139;SDS011;68546;59.142;37.948;2023-03-16T13:31:55;4.95;;;1.95;;
79139;SDS011;68546;59.142;37.948;2023-03-16T13:34:31;4.68;;;1.48;;
79139;SDS011;68546;59.142;37.948;2023-03-16T13:37:03;5.17;;;1.67;;
79139;SDS011;68546;59.142;37.948;2023-03-16T13:39:39;4.80;;;1.65;;
79139;SDS011;68546;59.142;37.948;2023-03-16T13:42:19;5.00;;;1.80;;
79139;SDS011;68546;59.142;37.948;2023-03-16T13:44:47;5.45;;;1.35;;
79139;SDS011;68546;59.142;37.948;2023-03-16T13:47:14;5.40;;;1.53;;
79139;SDS011;68546;59.142;37.948;2023-03-16T13:49:43;4.78;;;1.52;;
79139;SDS011;68546;59.142;37.948;2023-03-16T13:52:18;6.28;;;1.50;;
79139;SDS011;68546;59.142;37.948;2023-03-16T13:54:49;5.57;;;1.90;;
79139;SDS011;68546;59.142;37.948;2023-03-16T13:57:21;5.53;;;1.60;;
79139;SDS011;68546;59.142;37.948;2023-03-16T13:59:50;6.22;;;1.73;;
79139;SDS011;68546;59.142;37.948;2023-03-16T14:02:24;5.18;;;1.75;;
79139;SDS011;68546;59.142;37.948;2023-03-16T14:04:51;4.72;;;1.48;;
79139;SDS011;68546;59.142;37.948;2023-03-16T14:07:18;4.63;;;1.20;;
79139;SDS011;68546;59.142;37.948;2023-03-16T14:09:46;4.38;;;1.58;;
79139;SDS011;68546;59.142;37.948;2023-03-16T14:12:15;4.32;;;1.38;;
79139;SDS011;68546;59.142;37.948;2023-03-16T14:14:47;4.18;;;1.33;;
79139;SDS011;68546;59.142;37.948;2023-03-16T14:17:20;4.47;;;1.60;;
79139;SDS011;68546;59.142;37.948;2023-03-16T14:19:49;4.18;;;1.33;;
79139;SDS011;68546;59.142;37.948;2023-03-16T14:22:29;5.88;;;1.60;;
79139;SDS011;68546;59.142;37.948;2023-03-16T14:25:03;4.72;;;1.60;;
79139;SDS011;68546;59.142;37.948;2023-03-16T14:27:40;4.80;;;1.50;;
79139;SDS011;68546;59.142;37.948;2023-03-16T14:33:05;5.13;;;1.80;;
79139;SDS011;68546;59.142;37.948;2023-03-16T14:35:53;6.88;;;2.38;;
79139;SDS011;68546;59.142;37.948;2023-03-16T14:38:30;10.70;;;3.00;;
79139;SDS011;68546;59.142;37.948;2023-03-16T14:43:50;8.95;;;3.10;;
79139;SDS011;68546;59.142;37.948;2023-03-16T14:46:23;8.93;;;3.28;;
79139;SDS011;68546;59.142;37.948;2023-03-16T14:48:58;5.23;;;1.90;;
79139;SDS011;68546;59.142;37.948;2023-03-16T14:51:43;6.65;;;2.08;;
79139;SDS011;68546;59.142;37.948;2023-03-16T14:54:15;5.03;;;1.38;;
79139;SDS011;68546;59.142;37.948;2023-03-16T14:56:46;7.07;;;1.83;;
79139;SDS011;68546;59.142;37.948;2023-03-16T14:59:14;6.00;;;2.63;;
79139;SDS011;68546;59.142;37.948;2023-03-16T15:01:43;9.07;;;2.58;;
79139;SDS011;68546;59.142;37.948;2023-03-16T15:04:14;6.38;;;2.47;;
79139;SDS011;68546;59.142;37.948;2023-03-16T15:06:44;7.57;;;2.85;;
79139;SDS011;68546;59.142;37.948;2023-03-16T15:09:18;5.83;;;2.33;;
79139;SDS011;68546;59.142;37.948;2023-03-16T15:11:54;5.78;;;2.13;;
79139;SDS011;68546;59.142;37.948;2023-03-16T15:14:24;7.45;;;2.20;;
79139;SDS011;68546;59.142;37.948;2023-03-16T15:17:10;7.22;;;2.25;;
79139;SDS011;68546;59.142;37.948;2023-03-16T15:19:37;6.93;;;2.40;;
79139;SDS011;68546;59.142;37.948;2023-03-16T15:22:03;7.20;;;2.65;;
79139;SDS011;68546;59.142;37.948;2023-03-16T15:24:31;6.72;;;2.63;;
79139;SDS011;68546;59.142;37.948;2023-03-16T15:26:59;7.05;;;2.58;;
79139;SDS011;68546;59.142;37.948;2023-03-16T15:29:26;9.33;;;3.27;;
79139;SDS011;68546;59.142;37.948;2023-03-16T15:31:53;8.35;;;2.90;;
79139;SDS011;68546;59.142;37.948;2023-03-16T15:34:20;9.48;;;3.00;;
79139;SDS011;68546;59.142;37.948;2023-03-16T15:36:48;11.53;;;3.10;;
79139;SDS011;68546;59.142;37.948;2023-03-16T15:39:20;11.27;;;3.20;;
79139;SDS011;68546;59.142;37.948;2023-03-16T15:41:49;11.10;;;3.05;;
79139;SDS011;68546;59.142;37.948;2023-03-16T15:44:18;10.73;;;2.90;;
79139;SDS011;68546;59.142;37.948;2023-03-16T15:46:44;16.37;;;4.80;;
79139;SDS011;68546;59.142;37.948;2023-03-16T15:49:11;8.18;;;3.33;;
79139;SDS011;68546;59.142;37.948;2023-03-16T15:51:38;9.45;;;3.88;;
79139;SDS011;68546;59.142;37.948;2023-03-16T15:54:05;11.25;;;3.60;;
79139;SDS011;68546;59.142;37.948;2023-03-16T15:56:36;9.95;;;4.10;;
79139;SDS011;68546;59.142;37.948;2023-03-16T15:59:05;8.38;;;3.13;;
79139;SDS011;68546;59.142;37.948;2023-03-16T16:01:43;11.27;;;3.80;;
79139;SDS011;68546;59.142;37.948;2023-03-16T16:04:13;9.47;;;3.70;;
79139;SDS011;68546;59.142;37.948;2023-03-16T16:06:48;8.65;;;2.92;;
79139;SDS011;68546;59.142;37.948;2023-03-16T16:09:15;9.70;;;3.53;;
79139;SDS011;68546;59.142;37.948;2023-03-16T16:11:42;9.63;;;3.57;;
79139;SDS011;68546;59.142;37.948;2023-03-16T16:14:15;10.18;;;3.15;;
79139;SDS011;68546;59.142;37.948;2023-03-16T16:16:47;9.10;;;3.40;;
79139;SDS011;68546;59.142;37.948;2023-03-16T16:19:15;6.35;;;2.40;;
79139;SDS011;68546;59.142;37.948;2023-03-16T16:21:43;6.35;;;2.40;;
79139;SDS011;68546;59.142;37.948;2023-03-16T16:24:11;6.30;;;2.28;;
79139;SDS011;68546;59.142;37.948;2023-03-16T16:26:39;4.80;;;1.67;;